createdAt,value
2023-07-25T00:02:33.577Z,65.19
2023-07-25T00:07:37.052Z,65.90
2023-07-25T00:12:40.963Z,65.82
2023-07-25T00:17:45.741Z,66.29
2023-07-25T00:22:49.140Z,65.79
2023-07-25T00:27:52.569Z,66.63
2023-07-25T00:32:57.404Z,66.64
2023-07-25T00:38:00.963Z,66.40
2023-07-25T00:43:04.355Z,65.94
2023-07-25T00:48:09.343Z,66.18
2023-07-25T00:53:14.439Z,65.60
2023-07-25T00:58:19.813Z,65.87
2023-07-25T01:03:24.667Z,65.50
2023-07-25T01:08:28.126Z,65.83
2023-07-25T01:13:31.606Z,65.56
2023-07-25T01:18:36.621Z,65.27
2023-07-25T01:23:40.948Z,65.30
2023-07-25T01:28:47.023Z,65.30
2023-07-25T01:33:50.492Z,64.68
2023-07-25T01:39:12.432Z,64.63
2023-07-25T01:44:17.227Z,64.69
2023-07-25T01:49:20.684Z,65.04
2023-07-25T01:54:24.441Z,64.87
2023-07-25T01:59:30.559Z,64.81
2023-07-25T02:04:33.992Z,65.29
2023-07-25T02:09:55.636Z,65.00
2023-07-25T02:15:00.565Z,65.39
2023-07-25T02:20:04.848Z,65.40
2023-07-25T02:25:09.098Z,65.47
2023-07-25T02:30:14.210Z,65.39
2023-07-25T02:35:17.833Z,65.41
2023-07-25T02:40:21.232Z,65.38
2023-07-25T02:45:26.057Z,65.53
2023-07-25T02:50:29.800Z,65.55
2023-07-25T02:55:33.235Z,65.95
2023-07-25T03:00:38.030Z,67.14
2023-07-25T03:05:41.505Z,67.02
2023-07-25T03:10:45.234Z,66.93
2023-07-25T03:15:50.144Z,67.18
2023-07-25T03:20:53.579Z,66.59
2023-07-25T03:25:57.019Z,67.23
2023-07-25T03:31:01.838Z,66.97
2023-07-25T03:36:06.073Z,66.90
2023-07-25T03:41:09.544Z,66.65
2023-07-25T03:46:14.587Z,67.06
2023-07-25T03:51:18.048Z,67.01
2023-07-25T03:56:21.492Z,67.21
2023-07-25T04:01:26.264Z,66.95
2023-07-25T04:06:29.909Z,67.31
2023-07-25T04:11:53.072Z,67.11
2023-07-25T04:16:57.904Z,67.41
2023-07-25T04:22:01.314Z,67.01
2023-07-25T04:27:05.118Z,67.94
2023-07-25T04:32:10.456Z,67.85
2023-07-25T04:37:13.840Z,67.13
2023-07-25T04:42:17.299Z,67.68
2023-07-25T04:47:22.132Z,68.21
2023-07-25T04:52:25.762Z,67.78
2023-07-25T04:57:29.497Z,67.93
2023-07-25T05:02:34.382Z,68.26
2023-07-25T05:07:37.863Z,68.24
2023-07-25T05:12:41.781Z,67.93
2023-07-25T05:17:46.987Z,68.40
2023-07-25T05:22:50.477Z,69.50
2023-07-25T05:27:53.913Z,69.65
2023-07-25T05:32:58.809Z,69.40
2023-07-25T05:38:04.059Z,70.30
2023-07-25T05:43:07.582Z,70.06
2023-07-25T05:48:12.476Z,69.91
2023-07-25T05:53:15.910Z,70.17
2023-07-25T05:58:19.827Z,70.28
2023-07-25T06:03:24.650Z,69.19
2023-07-25T06:08:28.354Z,70.63
2023-07-25T06:13:34.645Z,70.03
2023-07-25T06:18:39.473Z,70.05
2023-07-25T06:23:42.963Z,69.38
2023-07-25T06:28:46.482Z,69.35
2023-07-25T06:33:51.196Z,69.26
2023-07-25T06:38:54.676Z,69.24
2023-07-25T06:43:58.153Z,68.85
2023-07-25T06:49:03.189Z,67.62
2023-07-25T06:54:06.615Z,68.21
2023-07-25T06:59:10.151Z,67.36
2023-07-25T07:04:14.930Z,68.09
2023-07-25T07:09:18.464Z,68.75
2023-07-25T07:14:21.912Z,69.15
2023-07-25T07:19:26.722Z,68.69
2023-07-25T07:24:30.438Z,67.80
2023-07-25T07:29:33.959Z,67.45
2023-07-25T07:34:38.864Z,67.54
2023-07-25T07:39:42.538Z,68.09
2023-07-25T07:44:46.159Z,68.19
2023-07-25T07:49:51.071Z,69.42
2023-07-25T07:54:54.728Z,68.56
2023-07-25T07:59:58.112Z,67.22
2023-07-25T08:05:02.891Z,65.03
2023-07-25T08:10:07.321Z,64.56
2023-07-25T08:15:11.119Z,64.46
2023-07-25T08:20:16.451Z,63.90
2023-07-25T08:25:19.900Z,63.95
2023-07-25T08:30:23.629Z,61.96
2023-07-25T08:35:28.553Z,63.12
2023-07-25T08:40:32.036Z,62.98
2023-07-25T08:45:36.397Z,61.22
2023-07-25T08:50:44.517Z,61.18
2023-07-25T08:56:06.988Z,63.11
2023-07-25T09:01:11.378Z,59.56
2023-07-25T09:06:16.940Z,60.15
2023-07-25T09:11:22.431Z,58.77
2023-07-25T09:16:26.317Z,58.88
2023-07-25T09:21:31.465Z,59.58
2023-07-25T09:26:40.321Z,57.08
2023-07-25T09:31:45.124Z,58.10
2023-07-25T09:36:50.290Z,56.06
2023-07-25T09:41:53.727Z,53.86
2023-07-25T09:46:59.254Z,56.66
2023-07-25T09:52:06.157Z,54.25
2023-07-25T09:57:10.380Z,52.87
2023-07-25T10:02:14.962Z,53.94
2023-07-25T10:07:20.433Z,52.05
2023-07-25T10:12:24.586Z,51.45
2023-07-25T10:17:28.480Z,50.31
2023-07-25T10:22:38.403Z,51.34
2023-07-25T10:27:41.948Z,49.29
2023-07-25T10:32:47.363Z,49.64
2023-07-25T10:37:54.035Z,50.82
2023-07-25T10:43:07.490Z,49.51
2023-07-25T10:48:30.035Z,51.30
2023-07-25T10:53:36.225Z,49.50
2023-07-25T10:58:41.217Z,48.50
2023-07-25T11:03:45.312Z,49.40
2023-07-25T11:08:50.304Z,49.38
2023-07-25T11:13:53.927Z,49.70
2023-07-25T11:18:58.198Z,48.62
2023-07-25T11:24:06.515Z,50.29
2023-07-25T11:29:11.265Z,47.73
2023-07-25T11:34:16.886Z,49.37
2023-07-25T11:39:21.761Z,49.87
2023-07-25T11:44:26.085Z,50.40
2023-07-25T11:49:46.820Z,50.54
2023-07-25T11:54:53.663Z,51.94
2023-07-25T11:59:58.092Z,53.51
2023-07-25T12:05:01.624Z,56.09
2023-07-25T12:10:07.204Z,58.29
2023-07-25T12:15:11.163Z,61.41
2023-07-25T12:20:16.398Z,61.36
2023-07-25T12:25:21.264Z,61.87
2023-07-25T12:30:24.881Z,61.83
2023-07-25T12:35:28.893Z,63.53
2023-07-25T12:40:33.794Z,64.14
2023-07-25T12:45:37.362Z,64.62
2023-07-25T12:50:41.406Z,64.28
2023-07-25T12:55:46.327Z,64.02
2023-07-25T13:00:50.031Z,64.04
2023-07-25T13:05:53.979Z,64.54
2023-07-25T13:10:58.827Z,62.52
2023-07-25T13:16:02.425Z,61.72
2023-07-25T13:21:05.936Z,63.51
2023-07-25T13:26:10.880Z,61.74
2023-07-25T13:31:14.364Z,61.76
2023-07-25T13:36:17.941Z,62.75
2023-07-25T13:41:22.734Z,63.53
2023-07-25T13:46:26.368Z,64.11
2023-07-25T13:51:30.002Z,64.52
2023-07-25T13:56:35.699Z,63.67
2023-07-25T14:01:39.420Z,63.75
2023-07-25T14:06:43.169Z,64.47
2023-07-25T14:11:51.228Z,64.00
2023-07-25T14:16:54.712Z,61.36
2023-07-25T14:21:58.417Z,62.22
2023-07-25T14:27:03.571Z,63.29
2023-07-25T14:32:08.194Z,62.36
2023-07-25T14:37:11.757Z,61.81
2023-07-25T14:42:16.617Z,61.45
2023-07-25T14:47:20.422Z,62.12
2023-07-25T14:52:24.029Z,60.75
2023-07-25T14:57:28.982Z,62.45
2023-07-25T15:02:32.570Z,58.47
2023-07-25T15:07:36.560Z,56.56
2023-07-25T15:12:41.761Z,56.00
2023-07-25T15:17:45.335Z,57.04
2023-07-25T15:22:48.961Z,57.12
2023-07-25T15:27:53.794Z,58.81
2023-07-25T15:32:57.330Z,59.69
2023-07-25T15:38:00.712Z,60.48
2023-07-25T15:43:09.667Z,61.61
2023-07-25T15:48:14.230Z,61.69
2023-07-25T15:53:17.666Z,62.79
2023-07-25T15:58:22.515Z,61.23
2023-07-25T16:03:25.989Z,62.80
2023-07-25T16:08:29.463Z,62.51
2023-07-25T16:13:38.784Z,62.71
2023-07-25T16:18:42.409Z,64.06
2023-07-25T16:23:45.849Z,64.15
2023-07-25T16:28:52.578Z,64.61
2023-07-25T16:33:55.972Z,64.87
2023-07-25T16:38:59.338Z,62.89
2023-07-25T16:44:04.745Z,63.70
2023-07-25T16:49:08.312Z,62.96
2023-07-25T16:54:11.793Z,65.34
2023-07-25T16:59:16.671Z,65.80
2023-07-25T17:04:20.165Z,66.88
2023-07-25T17:09:23.597Z,66.49
2023-07-25T17:14:28.345Z,67.27
2023-07-25T17:19:31.774Z,67.90
2023-07-25T17:24:35.914Z,67.61
2023-07-25T17:29:40.786Z,68.95
2023-07-25T17:34:44.172Z,68.67
2023-07-25T17:39:48.921Z,68.97
2023-07-25T17:44:53.742Z,68.92
2023-07-25T17:49:57.182Z,69.00
2023-07-25T17:55:00.593Z,69.78
2023-07-25T18:00:06.439Z,69.62
2023-07-25T18:05:15.385Z,70.73
2023-07-25T18:10:18.811Z,70.59
2023-07-25T18:15:23.732Z,70.35
2023-07-25T18:20:27.282Z,70.22
2023-07-25T18:25:30.921Z,70.62
2023-07-25T18:30:37.112Z,70.63
2023-07-25T18:35:40.616Z,70.45
2023-07-25T18:40:44.149Z,70.54
2023-07-25T18:45:49.026Z,70.43
2023-07-25T18:50:53.317Z,70.44
2023-07-25T18:55:56.758Z,70.15
2023-07-25T19:01:01.703Z,70.01
2023-07-25T19:06:05.279Z,71.08
2023-07-25T19:11:08.829Z,70.59
2023-07-25T19:16:13.963Z,70.21
2023-07-25T19:21:17.724Z,70.60
2023-07-25T19:26:21.291Z,71.47
2023-07-25T19:31:26.324Z,70.68
2023-07-25T19:36:30.178Z,70.86
2023-07-25T19:41:36.408Z,71.76
2023-07-25T19:46:41.307Z,72.09
2023-07-25T19:51:45.404Z,71.22
2023-07-25T19:56:49.155Z,71.52
2023-07-25T20:01:53.965Z,71.62
2023-07-25T20:06:57.467Z,71.26
2023-07-25T20:12:00.860Z,72.00
2023-07-25T20:17:06.022Z,71.42
2023-07-25T20:22:09.526Z,72.65
2023-07-25T20:27:13.096Z,71.82
2023-07-25T20:32:18.084Z,71.79
2023-07-25T20:37:21.594Z,71.62
2023-07-25T20:42:25.150Z,72.01
2023-07-25T20:47:30.213Z,71.40
2023-07-25T20:52:34.064Z,71.08
2023-07-25T20:57:37.494Z,71.43
2023-07-25T21:02:42.555Z,70.76
2023-07-25T21:07:46.334Z,71.06
2023-07-25T21:12:49.803Z,70.92
2023-07-25T21:18:06.609Z,70.89
2023-07-25T21:23:15.064Z,70.43
2023-07-25T21:28:18.573Z,70.06
2023-07-25T21:33:26.813Z,69.64
2023-07-25T21:38:30.694Z,70.46
2023-07-25T21:43:34.294Z,71.03
2023-07-25T21:48:39.256Z,71.00
2023-07-25T21:53:44.222Z,71.20
2023-07-25T21:58:47.869Z,70.82
2023-07-25T22:03:52.796Z,71.16
2023-07-25T22:08:56.290Z,70.85
2023-07-25T22:13:59.841Z,70.33
2023-07-25T22:19:04.664Z,70.63
2023-07-25T22:24:08.114Z,70.63
2023-07-25T22:29:11.665Z,71.63
2023-07-25T22:34:16.487Z,71.66
2023-07-25T22:39:20.082Z,71.19
2023-07-25T22:44:23.714Z,71.40
2023-07-25T22:49:28.755Z,71.83
2023-07-25T22:54:32.211Z,71.93
2023-07-25T22:59:35.821Z,71.84
2023-07-25T23:04:40.765Z,71.41
2023-07-25T23:09:44.269Z,71.52
2023-07-25T23:14:47.969Z,71.12
2023-07-25T23:19:53.008Z,72.33
2023-07-25T23:24:56.985Z,72.24
2023-07-25T23:30:00.836Z,71.75
2023-07-25T23:35:06.231Z,72.78
2023-07-25T23:40:10.515Z,71.88
2023-07-25T23:45:14.148Z,73.39
2023-07-25T23:50:19.183Z,73.33
2023-07-25T23:55:22.695Z,73.07
